createdAt,value
2023-01-21T00:02:10.996Z,52.03
2023-01-21T00:04:39.659Z,44.77
2023-01-21T00:07:09.015Z,41.10
2023-01-21T00:09:38.630Z,47.23
2023-01-21T00:12:08.744Z,36.50
2023-01-21T00:14:37.383Z,47.53
2023-01-21T00:17:05.849Z,38.87
2023-01-21T00:19:34.340Z,47.90
2023-01-21T00:22:02.813Z,45.30
2023-01-21T00:24:31.345Z,48.27
2023-01-21T00:26:59.873Z,42.53
2023-01-21T00:29:29.640Z,49.37
2023-01-21T00:31:58.165Z,44.13
2023-01-21T00:34:26.705Z,45.50
2023-01-21T00:36:56.524Z,48.77
2023-01-21T00:39:25.214Z,40.57
2023-01-21T00:41:53.808Z,41.83
2023-01-21T00:44:22.312Z,40.70
2023-01-21T00:46:52.159Z,56.23
2023-01-21T00:49:20.724Z,37.43
2023-01-21T00:51:49.174Z,54.27
2023-01-21T00:54:17.596Z,39.83
2023-01-21T00:56:46.125Z,36.20
2023-01-21T00:59:14.697Z,33.63
2023-01-21T01:01:43.773Z,46.80
2023-01-21T01:04:13.751Z,43.57
2023-01-21T01:06:42.176Z,42.13
2023-01-21T01:09:12.804Z,39.47
2023-01-21T01:11:41.332Z,46.60
2023-01-21T01:14:09.944Z,42.83
2023-01-21T01:16:38.365Z,39.47
2023-01-21T01:19:06.881Z,43.77
2023-01-21T01:21:36.691Z,41.67
2023-01-21T01:24:06.154Z,35.80
2023-01-21T01:26:35.445Z,35.00
2023-01-21T01:29:04.331Z,42.40
2023-01-21T01:31:33.218Z,47.27
2023-01-21T01:34:01.706Z,44.47
2023-01-21T01:36:30.260Z,35.80
2023-01-21T01:39:00.154Z,40.50
2023-01-21T01:41:30.556Z,40.17
2023-01-21T01:44:00.813Z,34.50
2023-01-21T01:46:31.282Z,35.90
2023-01-21T01:49:10.201Z,49.13
2023-01-21T01:51:45.828Z,44.90
2023-01-21T01:54:20.680Z,36.20
2023-01-21T01:56:51.649Z,40.33
2023-01-21T01:59:20.702Z,36.93
2023-01-21T02:01:49.562Z,36.53
2023-01-21T02:04:23.244Z,38.57
2023-01-21T02:06:53.560Z,40.23
2023-01-21T02:09:27.877Z,39.33
2023-01-21T02:11:56.647Z,39.93
2023-01-21T02:14:25.142Z,34.87
2023-01-21T02:17:08.327Z,42.77
2023-01-21T02:20:08.762Z,37.47
2023-01-21T02:22:44.910Z,36.97
2023-01-21T02:25:38.218Z,38.43
2023-01-21T02:28:34.294Z,39.50
2023-01-21T02:31:39.884Z,32.90
2023-01-21T02:34:24.015Z,30.73
2023-01-21T02:37:06.190Z,33.30
2023-01-21T02:39:48.043Z,42.23
2023-01-21T02:42:25.789Z,32.10
2023-01-21T02:45:01.607Z,39.57
2023-01-21T02:47:36.101Z,32.73
2023-01-21T02:50:13.272Z,36.57
2023-01-21T02:52:41.743Z,39.67
2023-01-21T02:55:16.199Z,50.10
2023-01-21T02:57:49.313Z,48.17
2023-01-21T03:00:20.880Z,35.23
2023-01-21T03:03:20.904Z,35.03
2023-01-21T03:06:30.000Z,34.13
2023-01-21T03:09:06.082Z,39.47
2023-01-21T03:11:34.615Z,37.90
2023-01-21T03:14:29.327Z,38.97
2023-01-21T03:17:04.496Z,35.10
2023-01-21T03:19:40.372Z,46.53
2023-01-21T03:22:16.457Z,37.57
2023-01-21T03:24:47.940Z,34.53
2023-01-21T03:27:21.364Z,42.60
2023-01-21T03:29:53.361Z,40.87
2023-01-21T03:32:24.628Z,42.23
2023-01-21T03:34:55.162Z,42.77
2023-01-21T03:37:31.809Z,47.70
2023-01-21T03:40:09.980Z,40.37
2023-01-21T03:42:38.829Z,43.93
2023-01-21T03:45:08.865Z,35.93
2023-01-21T03:47:39.738Z,47.67
2023-01-21T03:50:11.903Z,42.37
2023-01-21T03:52:44.323Z,35.70
2023-01-21T03:55:14.546Z,38.63
2023-01-21T03:57:42.995Z,35.27
2023-01-21T04:00:13.301Z,41.27
2023-01-21T04:02:41.834Z,42.40
2023-01-21T04:05:10.617Z,44.83
2023-01-21T04:07:39.068Z,44.73
2023-01-21T04:10:10.626Z,44.17
2023-01-21T04:12:39.068Z,37.77
2023-01-21T04:15:08.816Z,35.37
2023-01-21T04:17:37.373Z,40.37
2023-01-21T04:20:07.383Z,39.07
2023-01-21T04:22:35.816Z,50.20
2023-01-21T04:25:05.166Z,51.40
2023-01-21T04:27:35.160Z,45.43
2023-01-21T04:30:03.766Z,47.70
2023-01-21T04:32:33.461Z,41.40
2023-01-21T04:35:01.942Z,42.47
2023-01-21T04:37:30.521Z,49.00
2023-01-21T04:39:59.027Z,48.07
2023-01-21T04:42:27.665Z,47.07
2023-01-21T04:44:57.604Z,44.97
2023-01-21T04:47:26.115Z,50.37
2023-01-21T04:49:54.596Z,46.13
2023-01-21T04:52:23.036Z,53.43
2023-01-21T04:54:51.522Z,50.17
2023-01-21T04:57:20.058Z,43.23
2023-01-21T04:59:48.715Z,49.90
2023-01-21T05:02:19.107Z,49.17
2023-01-21T05:04:47.632Z,41.77
2023-01-21T05:07:16.197Z,49.73
2023-01-21T05:09:44.765Z,45.60
2023-01-21T05:12:13.234Z,41.57
2023-01-21T05:14:41.859Z,52.33
2023-01-21T05:17:10.700Z,44.43
2023-01-21T05:19:40.517Z,59.17
2023-01-21T05:22:08.981Z,36.50
2023-01-21T05:24:37.449Z,51.20
2023-01-21T05:27:05.958Z,52.53
2023-01-21T05:29:34.579Z,43.87
2023-01-21T05:32:03.086Z,46.40
2023-01-21T05:34:31.575Z,65.27
2023-01-21T05:37:01.442Z,49.83
2023-01-21T05:39:29.978Z,49.03
2023-01-21T05:41:58.439Z,50.27
2023-01-21T05:44:26.913Z,46.23
2023-01-21T05:46:55.492Z,49.87
2023-01-21T05:49:24.035Z,60.70
2023-01-21T05:51:52.482Z,62.57
2023-01-21T05:54:22.347Z,55.90
2023-01-21T05:56:50.913Z,47.80
2023-01-21T05:59:19.433Z,46.90
2023-01-21T06:01:47.964Z,60.90
2023-01-21T06:04:16.421Z,58.93
2023-01-21T06:06:44.876Z,61.03
2023-01-21T06:09:13.310Z,55.83
2023-01-21T06:11:43.104Z,56.23
2023-01-21T06:14:12.423Z,63.87
2023-01-21T06:16:40.913Z,64.50
2023-01-21T06:19:09.460Z,60.20
2023-01-21T06:21:37.947Z,55.13
2023-01-21T06:24:07.021Z,99.40
2023-01-21T06:26:35.464Z,59.37
2023-01-21T06:29:05.337Z,68.97
2023-01-21T06:31:33.946Z,81.53
2023-01-21T06:34:02.494Z,91.27
2023-01-21T06:36:30.979Z,71.03
2023-01-21T06:38:59.467Z,70.37
2023-01-21T06:41:27.962Z,114.57
2023-01-21T06:43:57.023Z,69.40
2023-01-21T06:46:26.933Z,80.37
2023-01-21T06:48:55.433Z,94.70
2023-01-21T06:51:23.956Z,84.27
2023-01-21T06:53:52.457Z,92.37
2023-01-21T06:56:21.215Z,100.17
2023-01-21T06:58:49.737Z,71.10
2023-01-21T07:01:18.183Z,91.27
2023-01-21T07:03:48.069Z,84.37
2023-01-21T07:06:16.537Z,106.97
2023-01-21T07:08:45.005Z,93.83
2023-01-21T07:11:13.484Z,104.33
2023-01-21T07:13:41.968Z,114.67
2023-01-21T07:16:10.480Z,99.27
2023-01-21T07:18:38.996Z,77.77
2023-01-21T07:21:08.873Z,77.27
2023-01-21T07:23:37.500Z,123.60
2023-01-21T07:26:06.240Z,95.57
2023-01-21T07:28:35.053Z,110.83
2023-01-21T07:31:04.892Z,98.37
2023-01-21T07:33:33.417Z,86.47
2023-01-21T07:36:01.987Z,146.20
2023-01-21T07:38:31.802Z,145.40
2023-01-21T07:41:00.460Z,184.40
2023-01-21T07:43:29.174Z,229.83
2023-01-21T07:46:00.242Z,96.87
2023-01-21T07:48:28.873Z,96.27
2023-01-21T07:50:58.963Z,93.93
2023-01-21T07:53:27.496Z,66.63
2023-01-21T07:55:57.376Z,74.50
2023-01-21T07:58:25.909Z,187.57
2023-01-21T08:00:54.398Z,83.20
2023-01-21T08:03:25.015Z,120.47
2023-01-21T08:05:53.504Z,70.53
2023-01-21T08:08:21.905Z,69.07
2023-01-21T08:10:53.241Z,82.63
2023-01-21T08:13:23.795Z,85.03
2023-01-21T08:15:53.154Z,74.70
2023-01-21T08:18:22.984Z,88.20
2023-01-21T08:20:56.338Z,81.90
2023-01-21T08:23:25.035Z,75.03
2023-01-21T08:25:54.239Z,82.33
2023-01-21T08:28:24.471Z,92.90
2023-01-21T08:30:53.006Z,86.70
2023-01-21T08:33:21.498Z,83.27
2023-01-21T08:35:51.516Z,82.27
2023-01-21T08:38:20.017Z,83.17
2023-01-21T08:40:48.480Z,85.77
2023-01-21T08:43:17.005Z,85.33
2023-01-21T08:45:46.941Z,103.17
2023-01-21T08:48:15.602Z,68.37
2023-01-21T08:50:44.449Z,67.60
2023-01-21T08:53:13.046Z,76.67
2023-01-21T08:55:41.567Z,65.67
2023-01-21T08:58:10.057Z,62.93
2023-01-21T09:00:38.578Z,62.63
2023-01-21T09:03:08.725Z,55.03
2023-01-21T09:05:37.205Z,45.43
2023-01-21T09:08:05.824Z,52.00
2023-01-21T09:10:52.815Z,52.13
2023-01-21T09:13:21.391Z,52.97
2023-01-21T09:15:50.035Z,52.87
2023-01-21T09:18:19.946Z,52.70
2023-01-21T09:20:48.726Z,45.80
2023-01-21T09:23:26.576Z,50.30
2023-01-21T09:25:57.499Z,43.40
2023-01-21T09:28:25.912Z,45.30
2023-01-21T09:30:57.889Z,49.47
2023-01-21T09:33:28.840Z,62.50
2023-01-21T09:35:58.444Z,52.37
2023-01-21T09:38:27.738Z,57.30
2023-01-21T09:40:58.094Z,53.03
2023-01-21T09:43:30.204Z,50.50
2023-01-21T09:46:02.900Z,53.97
2023-01-21T09:48:37.597Z,51.00
2023-01-21T09:51:14.572Z,49.23
2023-01-21T09:53:48.435Z,56.40
2023-01-21T09:56:26.731Z,50.03
2023-01-21T09:59:02.322Z,51.60
2023-01-21T10:01:35.435Z,55.13
2023-01-21T10:04:34.779Z,54.63
2023-01-21T10:07:07.451Z,58.93
2023-01-21T10:09:48.084Z,48.53
2023-01-21T10:12:31.781Z,54.57
2023-01-21T10:15:28.740Z,49.77
2023-01-21T10:18:00.540Z,55.37
2023-01-21T10:20:34.377Z,53.70
2023-01-21T10:23:07.914Z,55.87
2023-01-21T10:25:38.448Z,54.73
2023-01-21T10:28:14.570Z,50.47
2023-01-21T10:30:46.647Z,46.67
2023-01-21T10:33:19.465Z,47.97
2023-01-21T10:36:05.295Z,46.43
2023-01-21T10:38:40.687Z,46.53
2023-01-21T10:41:26.755Z,40.73
2023-01-21T10:44:02.300Z,44.47
2023-01-21T10:46:39.048Z,47.87
2023-01-21T10:49:23.146Z,51.90
2023-01-21T10:51:59.852Z,46.80
2023-01-21T10:54:39.630Z,49.90
2023-01-21T10:57:16.717Z,51.57
2023-01-21T10:59:45.519Z,52.20
2023-01-21T11:02:23.111Z,53.07
2023-01-21T11:04:52.922Z,51.23
2023-01-21T11:07:23.410Z,52.63
2023-01-21T11:09:53.546Z,46.10
2023-01-21T11:12:24.843Z,49.43
2023-01-21T11:14:57.875Z,48.63
2023-01-21T11:17:34.757Z,46.37
2023-01-21T11:20:05.695Z,55.40
2023-01-21T11:22:45.600Z,41.57
2023-01-21T11:25:27.195Z,48.87
2023-01-21T11:27:55.655Z,48.40
2023-01-21T11:30:58.546Z,45.27
2023-01-21T11:33:28.430Z,51.93
2023-01-21T11:35:58.347Z,48.33
2023-01-21T11:38:35.821Z,45.53
2023-01-21T11:41:08.262Z,45.80
2023-01-21T11:43:42.301Z,52.50
2023-01-21T11:46:38.609Z,43.77
2023-01-21T11:49:28.111Z,48.10
2023-01-21T11:52:14.820Z,38.30
2023-01-21T11:54:45.464Z,36.83
2023-01-21T11:57:29.872Z,44.00
2023-01-21T12:00:05.385Z,43.20
2023-01-21T12:02:44.126Z,39.27
2023-01-21T12:05:22.291Z,36.13
2023-01-21T12:07:52.426Z,34.30
2023-01-21T12:10:28.684Z,37.67
2023-01-21T12:13:15.063Z,36.00
2023-01-21T12:16:06.813Z,49.27
2023-01-21T12:18:56.561Z,38.87
2023-01-21T12:21:39.803Z,41.43
2023-01-21T12:24:21.264Z,36.50
2023-01-21T12:26:59.932Z,43.47
2023-01-21T12:29:45.896Z,36.70
2023-01-21T12:32:23.754Z,46.47
2023-01-21T12:34:56.908Z,41.00
2023-01-21T12:37:30.352Z,46.43
2023-01-21T12:40:03.865Z,37.97
2023-01-21T12:42:37.947Z,41.67
2023-01-21T12:45:13.083Z,47.80
2023-01-21T12:47:45.993Z,49.60
2023-01-21T12:50:23.643Z,40.83
2023-01-21T12:53:03.248Z,44.33
2023-01-21T12:55:39.905Z,41.97
2023-01-21T12:58:15.287Z,39.67
2023-01-21T13:00:48.774Z,37.47
2023-01-21T13:03:27.189Z,39.17
2023-01-21T13:06:00.565Z,40.03
2023-01-21T13:08:40.851Z,35.80
2023-01-21T13:11:16.679Z,34.53
2023-01-21T13:13:53.955Z,39.43
2023-01-21T13:16:26.029Z,33.27
2023-01-21T13:18:56.508Z,39.07
2023-01-21T13:21:35.108Z,46.17
2023-01-21T13:24:13.083Z,36.70
2023-01-21T13:26:47.943Z,44.23
2023-01-21T13:29:25.283Z,42.33
2023-01-21T13:32:00.779Z,33.60
2023-01-21T13:34:39.594Z,45.23
2023-01-21T13:37:14.613Z,41.40
2023-01-21T13:39:48.821Z,37.70
2023-01-21T13:42:29.145Z,39.07
2023-01-21T13:45:14.944Z,34.40
2023-01-21T13:48:05.688Z,36.00
2023-01-21T13:50:55.183Z,39.53
2023-01-21T13:53:39.237Z,38.03
2023-01-21T13:56:23.630Z,35.73
2023-01-21T13:58:57.516Z,39.00
2023-01-21T14:01:30.908Z,37.53
2023-01-21T14:04:05.386Z,39.77
2023-01-21T14:06:37.242Z,35.43
2023-01-21T14:09:10.676Z,33.20
2023-01-21T14:11:44.894Z,41.77
2023-01-21T14:14:43.177Z,38.53
2023-01-21T14:17:28.940Z,40.43
2023-01-21T14:20:24.329Z,37.00
2023-01-21T14:23:10.886Z,36.90
2023-01-21T14:25:54.111Z,35.83
2023-01-21T14:28:34.158Z,38.70
2023-01-21T14:31:08.053Z,33.43
2023-01-21T14:33:44.203Z,40.37
2023-01-21T14:36:19.345Z,34.20
2023-01-21T14:39:00.402Z,38.67
2023-01-21T14:41:55.027Z,40.23
2023-01-21T14:44:37.994Z,31.10
2023-01-21T14:47:22.990Z,33.93
2023-01-21T14:49:54.944Z,25.00
2023-01-21T14:52:30.178Z,30.07
2023-01-21T14:54:59.684Z,34.03
2023-01-21T14:57:31.014Z,35.47
2023-01-21T15:00:14.086Z,36.83
2023-01-21T15:02:45.660Z,30.57
2023-01-21T15:05:25.155Z,35.43
2023-01-21T15:08:05.704Z,35.40
2023-01-21T15:10:37.427Z,31.60
2023-01-21T15:13:14.941Z,36.50
2023-01-21T15:16:05.788Z,32.27
2023-01-21T15:18:38.977Z,38.43
2023-01-21T15:21:36.070Z,36.60
2023-01-21T15:24:22.951Z,34.73
2023-01-21T15:27:19.804Z,27.27
2023-01-21T15:30:26.247Z,33.00
2023-01-21T15:32:55.056Z,37.10
2023-01-21T15:35:31.329Z,37.80
2023-01-21T15:38:05.156Z,37.10
2023-01-21T15:40:38.974Z,33.97
2023-01-21T15:43:15.930Z,33.80
2023-01-21T15:45:50.634Z,31.53
2023-01-21T15:48:41.765Z,30.40
2023-01-21T15:51:25.680Z,37.93
2023-01-21T15:54:06.986Z,27.33
2023-01-21T15:56:56.515Z,38.50
2023-01-21T15:59:39.607Z,30.73
2023-01-21T16:02:26.762Z,31.30
2023-01-21T16:05:13.029Z,31.83
2023-01-21T16:07:54.027Z,26.73
2023-01-21T16:10:31.892Z,32.23
2023-01-21T16:13:11.518Z,34.43
2023-01-21T16:15:50.017Z,30.53
2023-01-21T16:18:28.435Z,37.20
2023-01-21T16:20:59.240Z,33.27
2023-01-21T16:23:35.097Z,28.10
2023-01-21T16:26:05.087Z,26.57
2023-01-21T16:28:45.764Z,25.43
2023-01-21T16:31:14.396Z,28.97
2023-01-21T16:33:43.264Z,33.47
2023-01-21T16:36:14.283Z,32.50
2023-01-21T16:38:44.272Z,31.57
2023-01-21T16:41:25.796Z,26.83
2023-01-21T16:43:57.894Z,26.03
2023-01-21T16:46:29.031Z,28.93
2023-01-21T16:48:59.109Z,23.67
2023-01-21T16:51:32.609Z,31.00
2023-01-21T16:54:28.193Z,27.70
2023-01-21T16:57:00.992Z,23.10
2023-01-21T16:59:37.980Z,25.87
2023-01-21T17:02:16.785Z,30.70
2023-01-21T17:04:45.333Z,30.57
2023-01-21T17:07:15.694Z,31.77
2023-01-21T17:09:44.503Z,34.13
2023-01-21T17:12:24.997Z,36.83
2023-01-21T17:14:57.441Z,31.90
2023-01-21T17:17:29.886Z,30.87
2023-01-21T17:19:58.842Z,28.27
2023-01-21T17:22:29.819Z,35.13
2023-01-21T17:25:07.893Z,32.67
2023-01-21T17:27:43.559Z,31.27
2023-01-21T17:30:26.368Z,28.30
2023-01-21T17:32:56.263Z,34.77
2023-01-21T17:35:27.081Z,31.57
2023-01-21T17:37:58.020Z,27.53
2023-01-21T17:40:32.696Z,26.93
2023-01-21T17:43:15.697Z,25.70
2023-01-21T17:45:46.972Z,36.57
2023-01-21T17:48:23.575Z,31.60
2023-01-21T17:50:52.646Z,29.20
2023-01-21T17:53:25.626Z,32.70
2023-01-21T17:56:01.110Z,29.30
2023-01-21T17:58:48.216Z,28.93
2023-01-21T18:01:17.164Z,29.03
2023-01-21T18:03:45.815Z,34.30
2023-01-21T18:06:23.708Z,32.60
2023-01-21T18:08:54.042Z,36.67
2023-01-21T18:11:22.991Z,31.33
2023-01-21T18:13:53.190Z,33.00
2023-01-21T18:16:21.677Z,33.03
2023-01-21T18:18:50.605Z,45.60
2023-01-21T18:21:20.898Z,37.93
2023-01-21T18:23:49.867Z,40.67
2023-01-21T18:26:26.144Z,36.57
2023-01-21T18:28:55.969Z,34.33
2023-01-21T18:31:24.894Z,30.83
2023-01-21T18:33:53.462Z,34.17
2023-01-21T18:36:22.176Z,31.10
2023-01-21T18:38:50.643Z,38.20
2023-01-21T18:41:19.126Z,40.30
2023-01-21T18:43:47.630Z,32.00
2023-01-21T18:46:19.614Z,34.70
2023-01-21T18:48:48.192Z,35.67
2023-01-21T18:51:16.771Z,29.20
2023-01-21T18:53:45.416Z,40.67
2023-01-21T18:56:15.122Z,41.07
2023-01-21T18:58:43.742Z,45.03
2023-01-21T19:01:23.169Z,89.87
2023-01-21T19:03:55.737Z,63.93
2023-01-21T19:06:26.120Z,36.53
2023-01-21T19:08:55.106Z,55.87
2023-01-21T19:11:23.942Z,55.37
2023-01-21T19:13:52.615Z,41.50
2023-01-21T19:16:22.274Z,70.73
2023-01-21T19:18:50.795Z,49.80
2023-01-21T19:21:20.770Z,51.67
2023-01-21T19:23:49.255Z,75.87
2023-01-21T19:26:18.185Z,69.63
2023-01-21T19:28:46.724Z,36.03
2023-01-21T19:31:15.327Z,55.67
2023-01-21T19:33:45.596Z,40.20
2023-01-21T19:36:17.468Z,50.63
2023-01-21T19:38:54.596Z,54.30
2023-01-21T19:41:23.504Z,65.60
2023-01-21T19:43:52.288Z,120.20
2023-01-21T19:46:23.043Z,116.07
2023-01-21T19:48:53.528Z,92.97
2023-01-21T19:51:22.324Z,56.43
2023-01-21T19:53:52.328Z,110.83
2023-01-21T19:56:24.340Z,86.87
2023-01-21T19:58:53.330Z,97.07
2023-01-21T20:01:21.827Z,97.20
2023-01-21T20:03:59.657Z,85.00
2023-01-21T20:06:33.387Z,99.83
2023-01-21T20:09:03.411Z,71.60
2023-01-21T20:11:31.934Z,125.10
2023-01-21T20:14:00.430Z,62.47
2023-01-21T20:16:31.085Z,90.35
2023-01-21T20:19:02.189Z,88.10
2023-01-21T20:21:30.816Z,69.83
2023-01-21T20:23:59.301Z,85.17
2023-01-21T20:26:29.619Z,70.43
2023-01-21T20:29:01.232Z,65.43
2023-01-21T20:31:30.222Z,122.10
2023-01-21T20:33:58.783Z,56.17
2023-01-21T20:36:27.839Z,77.60
2023-01-21T20:38:56.958Z,102.40
2023-01-21T20:41:25.488Z,115.17
2023-01-21T20:43:55.415Z,95.30
2023-01-21T20:46:28.310Z,120.47
2023-01-21T20:48:58.450Z,78.47
2023-01-21T20:51:28.341Z,95.17
2023-01-21T20:53:57.048Z,96.67
2023-01-21T20:56:27.708Z,53.33
2023-01-21T20:58:58.233Z,103.27
2023-01-21T21:01:27.938Z,102.40
2023-01-21T21:03:56.552Z,81.93
2023-01-21T21:06:28.678Z,143.65
2023-01-21T21:09:53.767Z,85.47
2023-01-21T21:12:34.014Z,54.67
2023-01-21T21:15:36.017Z,73.57
2023-01-21T21:18:07.268Z,87.53
2023-01-21T21:21:01.723Z,71.60
2023-01-21T21:23:34.030Z,58.47
2023-01-21T21:26:06.511Z,56.37
2023-01-21T21:28:58.674Z,51.10
2023-01-21T21:31:40.819Z,60.80
2023-01-21T21:35:21.488Z,55.00
2023-01-21T21:38:21.678Z,167.67
2023-01-21T21:41:38.388Z,35.60
2023-01-21T21:48:07.517Z,51.60
2023-01-21T21:50:55.768Z,43.17
2023-01-21T21:54:24.985Z,44.10
2023-01-21T21:56:48.809Z,39.60
2023-01-21T21:59:22.220Z,35.30
2023-01-21T22:01:52.469Z,39.13
2023-01-21T22:04:23.781Z,55.03
2023-01-21T22:06:53.129Z,38.57
2023-01-21T22:09:25.365Z,45.90
2023-01-21T22:11:55.928Z,69.57
2023-01-21T22:14:25.109Z,64.73
2023-01-21T22:17:03.120Z,70.30
2023-01-21T22:19:59.064Z,88.97
2023-01-21T22:22:39.308Z,48.17
2023-01-21T22:28:15.443Z,110.33
2023-01-21T22:30:44.775Z,56.83
2023-01-21T22:33:22.203Z,89.33
2023-01-21T22:36:03.756Z,36.43
2023-01-21T22:38:35.377Z,36.87
2023-01-21T22:41:05.341Z,67.30
2023-01-21T22:43:36.568Z,59.47
2023-01-21T22:46:08.140Z,58.87
2023-01-21T22:48:47.151Z,37.47
2023-01-21T22:51:19.673Z,67.80
2023-01-21T22:53:49.473Z,34.97
2023-01-21T22:56:21.173Z,38.77
2023-01-21T22:58:52.346Z,43.93
2023-01-21T23:01:23.247Z,40.47
2023-01-21T23:03:51.900Z,33.83
2023-01-21T23:06:22.163Z,41.33
2023-01-21T23:08:51.090Z,41.73
2023-01-21T23:11:21.385Z,43.17
2023-01-21T23:13:50.137Z,35.93
2023-01-21T23:16:20.946Z,38.47
2023-01-21T23:18:49.595Z,38.83
2023-01-21T23:21:19.839Z,33.27
2023-01-21T23:23:50.208Z,43.20
2023-01-21T23:26:20.121Z,39.57
2023-01-21T23:28:48.715Z,48.53
2023-01-21T23:31:18.634Z,53.73
2023-01-21T23:33:50.566Z,50.30
2023-01-21T23:36:19.804Z,50.57
2023-01-21T23:38:49.770Z,50.07
2023-01-21T23:41:19.770Z,41.53
2023-01-21T23:43:48.324Z,35.03
2023-01-21T23:46:19.454Z,32.63
2023-01-21T23:48:48.317Z,34.83
2023-01-21T23:51:18.396Z,38.60
2023-01-21T23:53:47.719Z,31.63
2023-01-21T23:56:20.179Z,38.27
2023-01-21T23:58:48.717Z,32.17
